Time;durP1;ratioP1;P1;durP2;ratioP2;P2;SDS_P1;SDS_P2;PMS_P1;PMS_P2;Temp;Humidity;BMP_temperature;BMP_pressure;BME280_temperature;BME280_humidity;BME280_pressure;Samples;Min_cycle;Max_cycle;Signal;HPM_P1;HPM_P2
2022/10/29 00:00:21;;;;;;;8.90;2.70;;;12.60;99.90;;;;;;5107394;28;20031;-65
2022/10/29 00:02:46;;;;;;;7.85;2.42;;;12.60;99.90;;;;;;5107864;28;20660;-65
2022/10/29 00:05:12;;;;;;;7.20;2.30;;;12.60;99.90;;;;;;5109975;28;20051;-65
2022/10/29 00:07:38;;;;;;;9.82;2.47;;;12.50;99.90;;;;;;5106740;27;20176;-65
2022/10/29 00:10:04;;;;;;;9.10;2.70;;;12.50;99.90;;;;;;5104004;27;20398;-66
2022/10/29 00:12:29;;;;;;;8.88;2.35;;;12.50;99.90;;;;;;5106974;27;20032;-65
2022/10/29 00:14:55;;;;;;;7.55;2.35;;;12.50;99.90;;;;;;5104906;27;20047;-65
2022/10/29 00:17:21;;;;;;;9.80;2.58;;;12.50;99.90;;;;;;5108089;27;20118;-66
2022/10/29 00:19:47;;;;;;;10.77;2.75;;;12.50;99.90;;;;;;5090640;28;20047;-66
2022/10/29 00:22:13;;;;;;;7.20;2.33;;;12.50;99.90;;;;;;5106142;28;20184;-66
2022/10/29 00:24:39;;;;;;;8.90;3.22;;;12.50;99.90;;;;;;5104270;27;20035;-65
2022/10/29 00:27:05;;;;;;;7.15;2.47;;;12.50;99.90;;;;;;5109009;28;20036;-65
2022/10/29 00:29:30;;;;;;;9.45;2.90;;;12.50;99.90;;;;;;5104068;27;20100;-66
2022/10/29 00:31:56;;;;;;;18.02;2.70;;;12.50;99.90;;;;;;5106345;28;20039;-65
2022/10/29 00:34:22;;;;;;;9.63;2.60;;;12.40;99.90;;;;;;5099954;28;20036;-65
2022/10/29 00:36:47;;;;;;;8.73;2.22;;;12.40;99.90;;;;;;5107266;27;20249;-66
2022/10/29 00:39:16;;;;;;;6.88;2.30;;;12.40;99.90;;;;;;5105191;27;20118;-66
2022/10/29 00:41:43;;;;;;;6.95;2.72;;;12.40;99.90;;;;;;5102999;27;20058;-65
2022/10/29 00:44:17;;;;;;;7.05;2.53;;;12.30;99.90;;;;;;5100764;27;20462;-65
2022/10/29 00:46:51;;;;;;;7.68;2.60;;;12.30;99.90;;;;;;5091821;28;20028;-65
2022/10/29 00:49:18;;;;;;;7.38;2.65;;;12.30;99.90;;;;;;5108330;28;20397;-65
2022/10/29 00:51:45;;;;;;;6.75;2.88;;;12.30;99.90;;;;;;5096909;27;20044;-65
2022/10/29 00:54:12;;;;;;;10.52;2.67;;;12.20;99.90;;;;;;5107948;28;20767;-65
2022/10/29 00:56:56;;;;;;;9.60;2.78;;;12.20;99.90;;;;;;5108968;28;20047;-65
2022/10/29 00:59:22;;;;;;;7.88;2.60;;;12.20;99.90;;;;;;5109938;27;20043;-65
2022/10/29 01:01:48;;;;;;;7.47;2.95;;;12.20;99.90;;;;;;5105646;27;20056;-65
2022/10/29 01:04:16;;;;;;;5.30;2.60;;;12.20;99.90;;;;;;5103903;28;20443;-65
2022/10/29 01:06:42;;;;;;;9.52;2.58;;;12.20;99.90;;;;;;5105122;28;20051;-65
2022/10/29 01:09:08;;;;;;;6.55;2.20;;;12.10;99.90;;;;;;5109260;28;20446;-65
2022/10/29 01:11:36;;;;;;;6.88;2.15;;;12.10;99.90;;;;;;5108911;28;20118;-65
2022/10/29 01:14:26;;;;;;;8.85;2.80;;;12.10;99.90;;;;;;5109958;28;20482;-65
2022/10/29 01:17:21;;;;;;;10.20;3.35;;;12.10;99.90;;;;;;5107382;28;20048;-66
2022/10/29 01:19:52;;;;;;;9.75;3.15;;;12.00;99.90;;;;;;5074871;28;20131;-65
2022/10/29 01:22:41;;;;;;;8.90;3.28;;;12.00;99.90;;;;;;5104740;28;20067;-65
2022/10/29 01:25:34;;;;;;;7.85;3.30;;;11.90;99.90;;;;;;5105352;28;20054;-66
2022/10/29 01:28:15;;;;;;;9.25;3.28;;;11.80;99.90;;;;;;5106700;28;20027;-66
2022/10/29 01:30:56;;;;;;;7.30;2.95;;;11.80;99.90;;;;;;5103676;28;20035;-65
2022/10/29 01:34:00;;;;;;;15.15;3.83;;;11.80;99.90;;;;;;5099167;28;20043;-66
2022/10/29 01:36:32;;;;;;;10.32;4.03;;;11.80;99.90;;;;;;5045324;28;20533;-65
2022/10/29 01:39:07;;;;;;;7.85;3.40;;;11.70;99.90;;;;;;5046955;28;20071;-66
2022/10/29 01:41:59;;;;;;;8.07;3.05;;;11.70;99.90;;;;;;5048582;28;20051;-65
2022/10/29 01:44:53;;;;;;;13.63;4.25;;;11.70;99.90;;;;;;5049219;28;20076;-65
2022/10/29 01:47:20;;;;;;;10.40;4.18;;;11.70;99.90;;;;;;5049809;28;20642;-65
2022/10/29 01:49:52;;;;;;;8.85;3.08;;;11.70;99.90;;;;;;5050866;28;20043;-65
2022/10/29 01:52:20;;;;;;;11.25;4.13;;;11.70;99.90;;;;;;5048212;28;20139;-65
2022/10/29 01:54:47;;;;;;;12.23;3.17;;;11.70;99.90;;;;;;5051089;28;20040;-65
2022/10/29 01:57:24;;;;;;;6.88;2.90;;;11.70;99.90;;;;;;5048170;28;20430;-65
2022/10/29 01:59:51;;;;;;;11.32;3.22;;;11.70;99.90;;;;;;5050984;28;20044;-65
2022/10/29 02:02:50;;;;;;;8.25;2.92;;;11.70;99.90;;;;;;5049662;28;20476;-65
2022/10/29 02:05:24;;;;;;;8.02;2.70;;;11.70;99.90;;;;;;5068318;28;20048;-65
2022/10/29 02:08:17;;;;;;;8.10;3.42;;;11.70;99.90;;;;;;5047648;28;20156;-65
2022/10/29 02:11:01;;;;;;;10.32;3.53;;;11.70;99.90;;;;;;5050328;28;20518;-65
2022/10/29 02:13:32;;;;;;;8.27;3.40;;;11.70;99.90;;;;;;5085485;28;20044;-65
2022/10/29 02:15:59;;;;;;;7.05;2.83;;;11.60;99.90;;;;;;5077775;28;20036;-65
2022/10/29 02:18:25;;;;;;;7.60;3.15;;;11.60;99.90;;;;;;5069954;28;20048;-65
2022/10/29 02:20:50;;;;;;;12.35;3.78;;;11.60;99.90;;;;;;5070798;28;20054;-65
2022/10/29 02:23:16;;;;;;;11.88;4.05;;;11.60;99.90;;;;;;5085038;28;20041;-65
2022/10/29 02:25:42;;;;;;;13.43;3.63;;;11.60;99.90;;;;;;5086793;28;20481;-65
2022/10/29 02:28:08;;;;;;;8.57;3.28;;;11.50;99.90;;;;;;5087219;28;20047;-65
2022/10/29 02:30:34;;;;;;;7.85;3.65;;;11.50;99.90;;;;;;5087934;28;20036;-65
2022/10/29 02:32:59;;;;;;;10.57;4.00;;;11.50;99.90;;;;;;5069453;28;20079;-66
2022/10/29 02:35:25;;;;;;;11.32;4.05;;;11.50;99.90;;;;;;5085405;28;20394;-66
2022/10/29 02:37:51;;;;;;;9.55;3.72;;;11.60;99.90;;;;;;5088067;28;20076;-65
2022/10/29 02:40:16;;;;;;;8.95;3.15;;;11.60;99.90;;;;;;5084575;28;20402;-65
2022/10/29 02:42:42;;;;;;;7.32;3.22;;;11.50;99.90;;;;;;5084217;28;20051;-66
2022/10/29 02:45:08;;;;;;;9.13;3.47;;;11.60;99.90;;;;;;5083422;28;20115;-65
2022/10/29 02:47:33;;;;;;;11.27;4.03;;;11.50;99.90;;;;;;5087144;28;20075;-65
2022/10/29 02:49:59;;;;;;;8.43;3.40;;;11.50;99.90;;;;;;5086514;28;20036;-65
2022/10/29 02:52:25;;;;;;;10.90;3.28;;;11.50;99.90;;;;;;5082398;28;20468;-65
2022/10/29 02:54:50;;;;;;;9.15;3.47;;;11.50;99.90;;;;;;5087069;28;20024;-65
2022/10/29 02:57:16;;;;;;;9.57;3.40;;;11.50;99.90;;;;;;5083727;28;20044;-65
2022/10/29 02:59:42;;;;;;;11.25;4.28;;;11.40;99.90;;;;;;5080644;28;20036;-65
2022/10/29 03:02:07;;;;;;;9.20;3.10;;;11.50;99.90;;;;;;5082029;28;20047;-65
2022/10/29 03:04:33;;;;;;;6.68;3.15;;;11.40;99.90;;;;;;5090649;27;20079;-65
2022/10/29 03:06:59;;;;;;;9.27;3.28;;;11.40;99.90;;;;;;5112472;27;20051;-65
2022/10/29 03:09:24;;;;;;;7.70;3.40;;;11.50;99.90;;;;;;5114276;27;20031;-65
2022/10/29 03:11:50;;;;;;;8.30;3.40;;;11.50;99.90;;;;;;5114377;27;20046;-65
2022/10/29 03:14:16;;;;;;;7.20;3.25;;;11.50;99.90;;;;;;5110638;27;20039;-65
2022/10/29 03:16:41;;;;;;;14.13;4.68;;;11.50;99.90;;;;;;5093341;27;20043;-65
2022/10/29 03:19:07;;;;;;;8.90;4.03;;;11.50;99.90;;;;;;5113914;27;20169;-65
2022/10/29 03:21:33;;;;;;;11.30;3.80;;;11.60;99.90;;;;;;5111294;27;20045;-65
2022/10/29 03:23:59;;;;;;;8.00;3.33;;;11.50;99.90;;;;;;5098486;27;20042;-65
2022/10/29 03:26:24;;;;;;;14.35;4.18;;;11.50;99.90;;;;;;5114279;27;20447;-65
2022/10/29 03:28:50;;;;;;;13.63;4.22;;;11.50;99.90;;;;;;5113170;27;20035;-65
2022/10/29 03:31:15;;;;;;;9.80;4.95;;;11.50;99.90;;;;;;5114822;27;20043;-65
2022/10/29 03:33:41;;;;;;;15.50;4.70;;;11.50;99.90;;;;;;5114644;27;20027;-65
2022/10/29 03:36:07;;;;;;;33.58;5.57;;;11.50;99.90;;;;;;5115146;27;20431;-65
2022/10/29 03:38:33;;;;;;;51.13;5.40;;;11.60;99.90;;;;;;5110878;27;20039;-65
2022/10/29 03:40:59;;;;;;;23.77;5.25;;;11.60;99.90;;;;;;5115264;27;20122;-65
2022/10/29 03:43:25;;;;;;;25.73;5.25;;;11.60;99.90;;;;;;5109019;27;20126;-66
2022/10/29 03:45:55;;;;;;;28.52;5.70;;;11.60;99.90;;;;;;5113962;27;20042;-66
2022/10/29 03:48:22;;;;;;;29.05;5.28;;;11.60;99.90;;;;;;5114022;27;20039;-65
2022/10/29 03:50:56;;;;;;;23.73;5.30;;;11.60;99.90;;;;;;5113510;27;20118;-65
2022/10/29 03:53:22;;;;;;;13.05;4.70;;;11.60;99.90;;;;;;5114043;27;20043;-65
2022/10/29 03:55:50;;;;;;;7.32;4.43;;;11.60;99.90;;;;;;5093364;27;20066;-65
2022/10/29 03:58:15;;;;;;;17.02;4.78;;;11.60;99.90;;;;;;5094928;27;20050;-65
2022/10/29 04:00:41;;;;;;;11.73;5.50;;;11.50;99.90;;;;;;5101698;27;20054;-66
2022/10/29 04:03:07;;;;;;;14.18;4.90;;;11.60;99.90;;;;;;5111015;27;20393;-65
2022/10/29 04:05:32;;;;;;;8.30;4.88;;;11.60;99.90;;;;;;5102226;27;20062;-65
2022/10/29 04:07:58;;;;;;;6.82;5.07;;;11.60;99.90;;;;;;5111279;27;20035;-66
2022/10/29 04:10:25;;;;;;;8.85;4.60;;;11.60;99.90;;;;;;5110117;27;20039;-64
2022/10/29 04:12:51;;;;;;;26.45;5.57;;;11.60;99.90;;;;;;5113562;27;20055;-65
2022/10/29 04:15:17;;;;;;;20.05;5.20;;;11.60;99.90;;;;;;5110350;27;20489;-66
2022/10/29 04:17:42;;;;;;;47.92;5.32;;;11.60;99.90;;;;;;5113316;27;20047;-65
2022/10/29 04:20:09;;;;;;;14.55;5.35;;;11.60;99.90;;;;;;5110540;27;20088;-65
2022/10/29 04:22:34;;;;;;;22.17;5.68;;;11.60;99.90;;;;;;5109672;27;20137;-65
2022/10/29 04:25:00;;;;;;;19.42;5.45;;;11.60;99.90;;;;;;5111453;27;20123;-65
2022/10/29 04:27:27;;;;;;;22.60;5.68;;;11.60;99.90;;;;;;5108932;27;20036;-65
2022/10/29 04:29:52;;;;;;;60.10;6.07;;;11.60;99.90;;;;;;5110347;27;20047;-65
2022/10/29 04:32:18;;;;;;;54.03;5.75;;;11.60;99.90;;;;;;5106817;27;20038;-65
2022/10/29 04:34:44;;;;;;;61.80;6.43;;;11.60;99.90;;;;;;5110292;27;20035;-64
2022/10/29 04:37:09;;;;;;;74.07;6.68;;;11.60;99.90;;;;;;5107646;27;20520;-65
2022/10/29 04:39:35;;;;;;;70.20;6.15;;;11.60;99.90;;;;;;5096851;27;20039;-64
2022/10/29 04:42:00;;;;;;;93.95;6.90;;;11.60;99.90;;;;;;5112600;27;20046;-65
2022/10/29 04:44:26;;;;;;;99.03;7.38;;;11.50;99.90;;;;;;5109961;27;20035;-65
2022/10/29 04:46:52;;;;;;;71.53;6.70;;;11.50;99.90;;;;;;5112453;27;20031;-65
2022/10/29 04:49:17;;;;;;;81.75;7.03;;;11.50;99.90;;;;;;5113115;27;20039;-65
2022/10/29 04:51:43;;;;;;;136.70;8.25;;;11.50;99.90;;;;;;5109681;27;20039;-65
2022/10/29 04:54:09;;;;;;;73.72;7.93;;;11.50;99.90;;;;;;5107704;27;20183;-65
2022/10/29 04:56:34;;;;;;;46.38;6.97;;;11.60;99.90;;;;;;5106394;27;20043;-65
2022/10/29 04:59:00;;;;;;;27.35;6.95;;;11.60;99.90;;;;;;5111446;27;20036;-66
2022/10/29 05:01:25;;;;;;;31.77;7.38;;;11.60;99.90;;;;;;5113567;27;20528;-66
2022/10/29 05:03:51;;;;;;;63.92;8.15;;;11.60;99.90;;;;;;5096113;27;20173;-65
2022/10/29 05:06:17;;;;;;;33.40;8.20;;;11.60;99.90;;;;;;5112628;27;20050;-66
2022/10/29 05:08:42;;;;;;;30.63;8.88;;;11.70;99.90;;;;;;5113181;27;20047;-66
2022/10/29 05:11:08;;;;;;;35.70;9.20;;;11.70;99.90;;;;;;5112522;27;20027;-65
2022/10/29 05:13:34;;;;;;;34.10;9.63;;;11.70;99.90;;;;;;5112548;27;20043;-66
2022/10/29 05:16:00;;;;;;;20.33;8.73;;;11.70;99.90;;;;;;5094465;27;20047;-65
2022/10/29 05:18:26;;;;;;;14.30;9.35;;;11.80;99.90;;;;;;5131833;27;20046;-66
2022/10/29 05:20:53;;;;;;;15.60;9.50;;;11.80;99.90;;;;;;5113075;27;20094;-65
2022/10/29 05:23:18;;;;;;;18.92;9.98;;;11.80;99.90;;;;;;5112397;27;20045;-65
2022/10/29 05:25:47;;;;;;;14.68;8.90;;;11.90;99.90;;;;;;5113191;27;20031;-66
2022/10/29 05:28:19;;;;;;;14.02;8.77;;;11.90;99.90;;;;;;5111649;27;20058;-65
2022/10/29 05:30:46;;;;;;;16.02;9.65;;;12.00;99.90;;;;;;5110756;27;20397;-66
2022/10/29 05:33:14;;;;;;;17.30;9.68;;;12.00;99.90;;;;;;5111353;27;20054;-66
2022/10/29 05:35:40;;;;;;;16.05;9.20;;;12.00;99.90;;;;;;5112152;27;20058;-66
2022/10/29 05:38:07;;;;;;;15.98;10.10;;;12.00;99.90;;;;;;5113039;27;20042;-66
2022/10/29 05:40:33;;;;;;;15.82;9.95;;;12.00;99.90;;;;;;5130054;27;20039;-66
2022/10/29 05:42:59;;;;;;;17.75;9.73;;;12.00;99.90;;;;;;5112369;27;20110;-66
2022/10/29 05:45:24;;;;;;;15.95;10.43;;;12.10;99.90;;;;;;5110978;28;20031;-67
2022/10/29 05:48:01;;;;;;;14.32;9.82;;;12.10;99.90;;;;;;5111457;27;20118;-65
2022/10/29 05:50:28;;;;;;;14.90;10.30;;;12.10;99.90;;;;;;5111739;27;20043;-66
2022/10/29 05:52:55;;;;;;;15.32;9.30;;;12.10;99.90;;;;;;5111599;27;20105;-67
2022/10/29 05:55:21;;;;;;;15.45;9.68;;;12.10;99.90;;;;;;5112509;28;20039;-66
2022/10/29 05:57:46;;;;;;;15.43;9.45;;;12.20;99.90;;;;;;5112386;27;20058;-66
2022/10/29 06:00:12;;;;;;;15.45;9.68;;;12.20;99.90;;;;;;5111527;27;20039;-66
2022/10/29 06:02:38;;;;;;;13.68;9.43;;;12.20;99.90;;;;;;5112034;28;20038;-66
2022/10/29 06:05:04;;;;;;;17.05;9.82;;;12.20;99.90;;;;;;5112350;27;20444;-66
2022/10/29 06:07:29;;;;;;;15.48;9.43;;;12.20;99.90;;;;;;5112050;27;20035;-67
2022/10/29 06:09:55;;;;;;;14.32;8.90;;;12.20;99.90;;;;;;5111820;28;20481;-66
2022/10/29 06:12:21;;;;;;;14.93;9.25;;;12.30;99.90;;;;;;5109732;28;20490;-67
2022/10/29 06:14:46;;;;;;;13.77;8.98;;;12.30;99.90;;;;;;5112340;28;20040;-67
2022/10/29 06:17:12;;;;;;;18.85;9.18;;;12.30;99.90;;;;;;5112532;28;20046;-66
2022/10/29 06:19:37;;;;;;;15.20;9.40;;;12.30;99.90;;;;;;5111632;28;20059;-67
2022/10/29 06:22:03;;;;;;;17.65;9.70;;;12.30;99.90;;;;;;5113482;28;20035;-67
2022/10/29 06:24:29;;;;;;;16.92;9.60;;;12.30;99.90;;;;;;5111590;28;20047;-66
2022/10/29 06:26:54;;;;;;;15.90;9.23;;;12.30;99.90;;;;;;5094796;28;20043;-66
2022/10/29 06:29:20;;;;;;;18.98;10.50;;;12.30;99.90;;;;;;5111944;28;20385;-66
2022/10/29 06:31:46;;;;;;;18.63;9.98;;;12.30;99.90;;;;;;5095369;28;20047;-66
2022/10/29 06:34:13;;;;;;;17.20;9.43;;;12.30;99.90;;;;;;5112199;28;20117;-66
2022/10/29 06:36:39;;;;;;;17.58;9.95;;;12.30;99.90;;;;;;5109854;28;20405;-66
2022/10/29 06:39:04;;;;;;;14.73;9.48;;;12.40;99.90;;;;;;5111932;28;20043;-66
2022/10/29 06:41:30;;;;;;;16.77;10.23;;;12.40;99.90;;;;;;5116055;27;20046;-66
2022/10/29 06:43:55;;;;;;;17.55;10.73;;;12.40;99.90;;;;;;5115400;27;20385;-66
2022/10/29 06:46:21;;;;;;;17.10;9.45;;;12.40;99.90;;;;;;5116295;27;20039;-67
2022/10/29 06:48:47;;;;;;;18.88;9.82;;;12.40;99.90;;;;;;5116179;27;20067;-66
2022/10/29 06:51:12;;;;;;;21.13;11.63;;;12.50;99.90;;;;;;5113666;27;20391;-67
2022/10/29 06:53:38;;;;;;;18.63;11.85;;;12.50;99.90;;;;;;5116122;27;20058;-68
2022/10/29 06:56:04;;;;;;;18.05;11.25;;;12.50;99.90;;;;;;5116479;27;20031;-68
2022/10/29 06:58:29;;;;;;;14.60;11.23;;;12.50;99.90;;;;;;5118751;27;20093;-68
2022/10/29 07:00:55;;;;;;;18.55;12.30;;;12.50;99.90;;;;;;5098601;27;20042;-68
2022/10/29 07:03:22;;;;;;;23.60;12.02;;;12.50;99.90;;;;;;5111267;27;20071;-68
2022/10/29 07:05:55;;;;;;;17.52;12.18;;;12.50;99.90;;;;;;5115325;27;20457;-68
2022/10/29 07:08:21;;;;;;;20.10;11.98;;;12.50;99.90;;;;;;5117242;27;20039;-68
2022/10/29 07:10:50;;;;;;;20.30;12.60;;;12.50;99.90;;;;;;5116230;27;20394;-68
2022/10/29 07:13:15;;;;;;;22.13;12.65;;;12.60;99.90;;;;;;5116059;27;20047;-68
2022/10/29 07:15:41;;;;;;;21.52;11.50;;;12.60;99.90;;;;;;5114896;27;20397;-68
2022/10/29 07:18:08;;;;;;;20.83;11.88;;;12.60;99.90;;;;;;5115017;27;20082;-67
2022/10/29 07:20:39;;;;;;;24.33;12.23;;;12.60;99.90;;;;;;5113866;27;20039;-68
2022/10/29 07:23:06;;;;;;;21.97;12.83;;;12.60;99.90;;;;;;5115555;27;20106;-68
2022/10/29 07:25:32;;;;;;;27.25;13.25;;;12.60;99.90;;;;;;5116005;27;20502;-67
2022/10/29 07:28:17;;;;;;;20.65;11.80;;;12.60;99.90;;;;;;5115928;27;20050;-68
2022/10/29 07:30:44;;;;;;;22.92;11.98;;;12.60;99.90;;;;;;5114784;27;20039;-68
2022/10/29 07:33:09;;;;;;;18.70;11.82;;;12.60;99.90;;;;;;5115424;27;20046;-68
2022/10/29 07:35:35;;;;;;;19.98;12.02;;;12.60;99.90;;;;;;5114573;27;20039;-67
2022/10/29 07:38:03;;;;;;;21.20;12.30;;;12.70;99.90;;;;;;5113657;27;20043;-68
2022/10/29 07:40:28;;;;;;;18.95;11.68;;;12.70;99.90;;;;;;5114619;27;20389;-67
2022/10/29 07:42:54;;;;;;;19.27;10.57;;;12.70;99.90;;;;;;5115161;27;20076;-68
2022/10/29 07:45:20;;;;;;;22.65;11.65;;;12.70;99.90;;;;;;5114292;27;20493;-67
2022/10/29 07:47:46;;;;;;;20.80;10.82;;;12.80;99.90;;;;;;5112838;27;20047;-68
2022/10/29 07:50:12;;;;;;;17.48;10.50;;;12.80;99.90;;;;;;5116284;27;20042;-68
2022/10/29 07:52:39;;;;;;;21.45;11.73;;;12.80;99.90;;;;;;5113244;27;20039;-68
2022/10/29 07:55:06;;;;;;;16.27;10.38;;;12.90;99.90;;;;;;5112978;27;20045;-67
2022/10/29 07:57:32;;;;;;;22.50;11.68;;;12.90;99.90;;;;;;5114937;27;20038;-69
2022/10/29 07:59:57;;;;;;;18.73;11.88;;;12.90;99.90;;;;;;5114297;27;20031;-69
2022/10/29 08:02:23;;;;;;;19.00;10.70;;;13.00;99.90;;;;;;5102548;27;20497;-68
2022/10/29 08:04:48;;;;;;;22.65;11.13;;;13.00;99.90;;;;;;5114793;27;20047;-68
2022/10/29 08:07:14;;;;;;;25.30;11.93;;;13.00;99.90;;;;;;5114116;27;20409;-68
2022/10/29 08:09:40;;;;;;;20.98;10.98;;;13.10;99.90;;;;;;5114714;27;20477;-68
2022/10/29 08:12:09;;;;;;;21.20;11.10;;;13.10;99.90;;;;;;5114486;27;20062;-68
2022/10/29 08:14:35;;;;;;;20.55;11.00;;;13.20;99.90;;;;;;5113551;27;20377;-68
2022/10/29 08:17:00;;;;;;;25.20;11.98;;;13.20;99.90;;;;;;5114517;27;20043;-67
2022/10/29 08:19:28;;;;;;;26.63;12.95;;;13.20;99.90;;;;;;5113050;27;20039;-68
2022/10/29 08:21:54;;;;;;;21.52;11.73;;;13.30;99.90;;;;;;5114495;27;20043;-68
2022/10/29 08:24:20;;;;;;;20.20;12.18;;;13.30;99.90;;;;;;5112430;27;20051;-68
2022/10/29 08:26:46;;;;;;;26.45;12.18;;;13.40;99.90;;;;;;5114656;27;20049;-68
2022/10/29 08:29:11;;;;;;;25.75;12.55;;;13.40;99.90;;;;;;5114524;27;20031;-68
2022/10/29 08:31:37;;;;;;;28.27;12.57;;;13.40;99.90;;;;;;5111593;27;20088;-68
2022/10/29 08:34:03;;;;;;;22.95;11.90;;;13.50;99.90;;;;;;5114348;27;20046;-68
2022/10/29 08:36:28;;;;;;;27.23;13.98;;;13.50;99.90;;;;;;5113896;27;20379;-68
2022/10/29 08:38:54;;;;;;;30.02;14.25;;;13.60;99.90;;;;;;5114006;27;20408;-69
2022/10/29 08:41:53;;;;;;;27.63;14.73;;;13.70;99.90;;;;;;5113701;27;20026;-68
2022/10/29 08:44:37;;;;;;;32.55;14.13;;;13.70;99.90;;;;;;5091607;27;20059;-68
2022/10/29 08:47:21;;;;;;;32.25;15.20;;;13.90;99.90;;;;;;5113724;27;20046;-68
2022/10/29 08:50:04;;;;;;;24.80;15.25;;;13.90;99.90;;;;;;5095982;27;20114;-68
2022/10/29 08:52:37;;;;;;;27.52;13.60;;;14.00;99.90;;;;;;5096136;27;20402;-67
2022/10/29 08:55:13;;;;;;;27.90;15.48;;;14.10;99.90;;;;;;5114048;27;20047;-68
2022/10/29 08:57:48;;;;;;;31.38;16.95;;;14.20;99.90;;;;;;5113954;27;20047;-68
2022/10/29 09:00:17;;;;;;;29.35;16.00;;;14.20;99.90;;;;;;5113304;27;20083;-68
2022/10/29 09:02:43;;;;;;;28.13;17.30;;;14.40;99.90;;;;;;5113313;27;20046;-68
2022/10/29 09:05:18;;;;;;;29.45;16.38;;;14.50;99.90;;;;;;5113246;27;20034;-68
2022/10/29 09:08:17;;;;;;;30.80;15.55;;;14.60;99.90;;;;;;5113717;27;20097;-68
2022/10/29 09:10:54;;;;;;;25.38;14.45;;;14.60;99.90;;;;;;5111949;27;20039;-68
2022/10/29 09:13:53;;;;;;;30.30;15.05;;;14.70;99.90;;;;;;5113553;27;20063;-68
2022/10/29 09:16:45;;;;;;;24.48;14.80;;;14.80;99.90;;;;;;5112339;27;20173;-68
2022/10/29 09:19:21;;;;;;;30.08;15.90;;;14.80;99.90;;;;;;4995812;28;20049;-68
2022/10/29 09:21:51;;;;;;;28.83;16.52;;;15.00;99.90;;;;;;5003242;28;20463;-69
2022/10/29 09:24:58;;;;;;;26.75;16.00;;;15.20;99.90;;;;;;5015965;28;20053;-68
2022/10/29 09:27:40;;;;;;;29.80;15.10;;;15.40;99.90;;;;;;4980171;28;20633;-67
2022/10/29 09:30:18;;;;;;;24.70;14.65;;;15.50;99.90;;;;;;4977225;28;20047;-68
2022/10/29 09:32:43;;;;;;;25.40;13.82;;;15.60;99.90;;;;;;4971718;28;20121;-67
2022/10/29 09:35:18;;;;;;;22.35;13.00;;;15.70;99.90;;;;;;4971922;28;20130;-68
2022/10/29 09:37:48;;;;;;;23.08;14.10;;;15.80;99.90;;;;;;4973677;28;20054;-68
2022/10/29 09:40:37;;;;;;;27.13;14.02;;;15.90;99.90;;;;;;4969802;28;20382;-68
2022/10/29 09:43:25;;;;;;;25.35;13.77;;;15.90;99.90;;;;;;4982984;28;20050;-68
2022/10/29 09:45:51;;;;;;;25.40;13.57;;;15.90;99.90;;;;;;4970372;28;20030;-68
2022/10/29 09:48:28;;;;;;;24.52;14.65;;;15.90;99.90;;;;;;4972516;28;20097;-68
2022/10/29 09:51:11;;;;;;;21.08;13.93;;;16.00;99.90;;;;;;4971814;28;20100;-68
2022/10/29 09:53:37;;;;;;;;;;;16.00;99.90;;;;;;4955751;28;20061;-68
2022/10/29 09:56:06;;;;;;;25.83;14.93;;;16.10;99.90;;;;;;5008011;28;19924;-68
2022/10/29 09:58:38;;;;;;;26.90;15.60;;;16.10;99.90;;;;;;5031039;28;20069;-68
2022/10/29 10:01:04;;;;;;;27.45;15.07;;;16.20;99.90;;;;;;5042899;27;20051;-68
2022/10/29 10:03:37;;;;;;;25.95;15.35;;;16.30;99.90;;;;;;5110484;28;20120;-68
2022/10/29 10:06:09;;;;;;;29.77;15.50;;;16.30;99.90;;;;;;5109086;28;20064;-69
2022/10/29 10:09:00;;;;;;;22.42;14.25;;;16.30;99.90;;;;;;5101823;28;20051;-68
2022/10/29 10:11:40;;;;;;;26.95;15.35;;;16.40;99.90;;;;;;5109377;28;20488;-68
2022/10/29 10:14:29;;;;;;;27.23;15.25;;;16.50;99.90;;;;;;5108824;28;20451;-68
2022/10/29 10:16:57;;;;;;;27.77;14.93;;;16.70;99.90;;;;;;5109037;28;20043;-68
2022/10/29 10:19:29;;;;;;;25.88;15.32;;;16.90;99.90;;;;;;5088940;28;20051;-68
2022/10/29 10:22:00;;;;;;;26.48;14.30;;;17.10;99.90;;;;;;5107270;28;20435;-69
2022/10/29 10:24:28;;;;;;;28.17;14.55;;;17.30;99.90;;;;;;5109062;28;20059;-68
2022/10/29 10:26:53;;;;;;;25.80;13.90;;;17.50;99.90;;;;;;5109318;28;20106;-68
2022/10/29 10:29:24;;;;;;;21.88;13.07;;;17.60;99.90;;;;;;5107823;28;20115;-69
2022/10/29 10:32:14;;;;;;;22.63;13.32;;;17.60;99.90;;;;;;5102709;28;20035;-68
2022/10/29 10:34:39;;;;;;;24.48;13.05;;;17.70;99.90;;;;;;5092350;28;20096;-68
2022/10/29 10:37:08;;;;;;;22.38;11.95;;;18.00;99.90;;;;;;5109895;28;20036;-68
2022/10/29 10:39:35;;;;;;;20.63;13.93;;;18.40;99.90;;;;;;5108911;28;20046;-68
2022/10/29 10:42:13;;;;;;;22.73;11.60;;;18.80;99.90;;;;;;5108224;28;20028;-68
2022/10/29 10:44:47;;;;;;;24.20;12.25;;;19.00;99.90;;;;;;5108425;28;20044;-68
2022/10/29 10:47:17;;;;;;;25.45;11.93;;;18.90;99.90;;;;;;5107597;28;20470;-69
2022/10/29 10:49:42;;;;;;;24.27;12.18;;;18.70;99.90;;;;;;5109634;28;20398;-68
2022/10/29 10:52:19;;;;;;;23.85;12.43;;;18.50;99.90;;;;;;5110273;28;20038;-69
2022/10/29 10:54:55;;;;;;;27.83;13.85;;;18.40;99.90;;;;;;5091960;28;20079;-69
2022/10/29 10:57:27;;;;;;;22.70;12.23;;;18.20;99.90;;;;;;5108735;28;20046;-68
2022/10/29 11:00:05;;;;;;;25.23;12.57;;;18.20;99.90;;;;;;5109608;28;20043;-68
2022/10/29 11:03:12;;;;;;;22.75;12.70;;;18.10;99.90;;;;;;5109028;28;20406;-68
2022/10/29 11:05:43;;;;;;;27.42;11.82;;;18.10;99.90;;;;;;5108257;28;20060;-68
2022/10/29 11:08:31;;;;;;;27.17;12.25;;;18.00;99.90;;;;;;5103738;28;20079;-68
2022/10/29 11:11:16;;;;;;;21.15;11.25;;;18.00;99.90;;;;;;5108582;28;20047;-68
2022/10/29 11:13:42;;;;;;;20.15;11.48;;;18.00;99.90;;;;;;5108767;28;20454;-69
2022/10/29 11:16:33;;;;;;;20.65;12.00;;;18.00;99.90;;;;;;5105635;28;20436;-68
2022/10/29 11:19:17;;;;;;;25.23;12.10;;;18.00;99.90;;;;;;5108897;28;20439;-69
2022/10/29 11:22:07;;;;;;;22.08;11.95;;;18.10;99.90;;;;;;5108581;28;20078;-68
2022/10/29 11:24:47;;;;;;;25.67;12.30;;;18.10;99.90;;;;;;5091016;28;20070;-68
2022/10/29 11:27:40;;;;;;;26.13;12.38;;;18.10;99.90;;;;;;5107701;28;20044;-68
2022/10/29 11:30:10;;;;;;;22.40;12.05;;;18.10;99.90;;;;;;5110817;28;20036;-69
2022/10/29 11:33:13;;;;;;;21.77;11.13;;;18.10;99.90;;;;;;5112283;28;20063;-68
2022/10/29 11:35:50;;;;;;;17.40;10.43;;;18.20;99.90;;;;;;5109977;28;20047;-68
2022/10/29 11:38:27;;;;;;;23.83;11.07;;;18.20;99.90;;;;;;5093857;28;20073;-68
2022/10/29 11:41:15;;;;;;;28.55;11.63;;;18.30;99.90;;;;;;5110391;28;20382;-69
2022/10/29 11:43:41;;;;;;;23.10;11.38;;;18.40;99.90;;;;;;5111353;28;20051;-67
2022/10/29 11:46:36;;;;;;;20.85;12.00;;;18.40;99.90;;;;;;5093645;28;20040;-68
2022/10/29 11:49:20;;;;;;;24.58;11.70;;;18.50;99.90;;;;;;5110893;28;20036;-69
2022/10/29 11:52:12;;;;;;;23.15;12.10;;;18.50;99.90;;;;;;5109225;28;20039;-68
2022/10/29 11:54:47;;;;;;;23.30;13.13;;;18.50;99.90;;;;;;5111379;28;20050;-68
2022/10/29 11:57:38;;;;;;;27.00;12.60;;;18.60;99.90;;;;;;5091767;28;20044;-68
2022/10/29 12:00:17;;;;;;;24.35;12.50;;;18.60;99.90;;;;;;5107159;28;20478;-67
2022/10/29 12:03:10;;;;;;;20.63;12.05;;;18.60;99.90;;;;;;5111789;28;20044;-68
2022/10/29 12:06:07;;;;;;;24.92;12.27;;;18.70;99.90;;;;;;5111308;28;20065;-68
2022/10/29 12:08:54;;;;;;;23.85;11.88;;;18.70;99.90;;;;;;5111689;28;20100;-68
2022/10/29 12:11:26;;;;;;;21.38;11.32;;;18.70;99.90;;;;;;5112011;28;20075;-68
2022/10/29 12:14:13;;;;;;;21.17;12.43;;;18.80;99.90;;;;;;5111834;28;20046;-67
2022/10/29 12:16:38;;;;;;;23.42;12.30;;;18.80;99.90;;;;;;5111714;28;20549;-68
2022/10/29 12:19:19;;;;;;;20.13;11.73;;;18.80;99.90;;;;;;5111284;28;20115;-68
2022/10/29 12:21:57;;;;;;;27.17;12.00;;;18.80;99.90;;;;;;5111438;28;20402;-68
2022/10/29 12:25:02;;;;;;;21.92;11.73;;;18.80;99.90;;;;;;5089674;28;20039;-68
2022/10/29 12:27:44;;;;;;;23.65;11.35;;;18.70;99.90;;;;;;5111908;28;20039;-68
2022/10/29 12:30:12;;;;;;;;;;;18.70;99.90;;;;;;5111892;28;20035;-68
2022/10/29 12:33:17;;;;;;;25.48;11.15;;;18.70;99.90;;;;;;5111240;28;20294;-68
2022/10/29 12:36:10;;;;;;;24.08;12.10;;;18.70;99.90;;;;;;5111164;28;20530;-67
2022/10/29 12:38:46;;;;;;;22.42;11.07;;;18.70;99.90;;;;;;5111407;28;20501;-68
2022/10/29 12:41:20;;;;;;;21.67;11.43;;;18.80;99.90;;;;;;5111277;28;20478;-68
2022/10/29 12:43:46;;;;;;;20.90;11.00;;;18.80;99.90;;;;;;5110936;28;20047;-68
2022/10/29 12:46:30;;;;;;;19.77;11.45;;;18.90;99.90;;;;;;5111042;28;20027;-68
2022/10/29 12:49:14;;;;;;;22.98;11.73;;;18.90;99.90;;;;;;5093774;28;20051;-68
2022/10/29 12:51:45;;;;;;;20.92;11.45;;;18.90;99.90;;;;;;5110532;28;20040;-68
2022/10/29 12:54:26;;;;;;;20.98;11.57;;;18.90;99.90;;;;;;5111213;28;20474;-67
2022/10/29 12:56:51;;;;;;;22.75;11.32;;;18.90;99.90;;;;;;5110945;28;20051;-68